createdAt,value
2018-01-11T00:00:21.794Z,8.41
2018-01-11T00:01:21.803Z,8.37
2018-01-11T00:02:21.797Z,8.33
2018-01-11T00:03:21.792Z,8.34
2018-01-11T00:04:21.833Z,8.34
2018-01-11T00:05:21.839Z,8.34
2018-01-11T00:06:21.811Z,8.36
2018-01-11T00:07:21.817Z,8.26
2018-01-11T00:08:21.814Z,8.37
2018-01-11T00:09:21.818Z,8.30
2018-01-11T00:10:21.806Z,8.33
2018-01-11T00:11:21.826Z,8.33
2018-01-11T00:12:21.813Z,8.40
2018-01-11T00:13:21.852Z,8.33
2018-01-11T00:14:21.819Z,8.33
2018-01-11T00:15:21.823Z,8.36
2018-01-11T00:16:21.833Z,8.37
2018-01-11T00:17:21.878Z,8.36
2018-01-11T00:18:21.816Z,8.33
2018-01-11T00:19:21.820Z,8.29
2018-01-11T00:20:21.944Z,8.34
2018-01-11T00:21:21.952Z,8.40
2018-01-11T00:22:21.835Z,8.40
2018-01-11T00:23:21.863Z,8.41
2018-01-11T00:24:21.837Z,8.37
2018-01-11T00:25:21.860Z,8.30
2018-01-11T00:26:21.887Z,8.36
2018-01-11T00:27:21.828Z,8.25
2018-01-11T00:28:21.831Z,8.18
2018-01-11T00:29:21.837Z,8.20
2018-01-11T00:30:21.838Z,8.23
2018-01-11T00:31:21.871Z,8.22
2018-01-11T00:32:21.865Z,8.30
2018-01-11T00:33:21.876Z,8.08
2018-01-11T00:34:21.866Z,8.18
2018-01-11T00:35:21.842Z,8.30
2018-01-11T00:36:21.877Z,8.18
2018-01-11T00:37:21.835Z,8.22
2018-01-11T00:38:21.833Z,8.20
2018-01-11T00:39:21.854Z,8.23
2018-01-11T00:40:21.887Z,8.28
2018-01-11T00:41:21.844Z,8.30
2018-01-11T00:42:21.838Z,8.26
2018-01-11T00:43:21.905Z,8.25
2018-01-11T00:44:21.857Z,8.37
2018-01-11T00:45:21.855Z,8.34
2018-01-11T00:46:21.848Z,8.33
2018-01-11T00:47:21.876Z,8.34
2018-01-11T00:48:21.904Z,8.37
2018-01-11T00:49:21.895Z,8.38
2018-01-11T00:50:21.893Z,8.36
2018-01-11T00:51:21.888Z,8.40
2018-01-11T00:52:21.849Z,8.33
2018-01-11T00:53:21.854Z,8.34
2018-01-11T00:54:21.850Z,8.40
2018-01-11T00:55:21.860Z,8.44
2018-01-11T00:56:21.863Z,8.40
2018-01-11T00:57:22.501Z,8.40
2018-01-11T00:58:21.872Z,8.38
2018-01-11T00:59:21.872Z,8.37
2018-01-11T01:00:21.869Z,8.40
2018-01-11T01:01:21.867Z,8.38
2018-01-11T01:02:21.874Z,8.34
2018-01-11T01:03:21.872Z,8.37
2018-01-11T01:04:21.906Z,8.34
2018-01-11T01:05:21.878Z,8.33
2018-01-11T01:06:22.494Z,8.30
2018-01-11T01:07:21.893Z,8.30
2018-01-11T01:08:21.901Z,8.40
2018-01-11T01:09:21.916Z,8.38
2018-01-11T01:10:21.879Z,8.33
2018-01-11T01:11:21.890Z,8.40
2018-01-11T01:12:21.903Z,8.33
2018-01-11T01:13:21.882Z,8.33
2018-01-11T01:14:21.894Z,8.37
2018-01-11T01:15:21.917Z,8.44
2018-01-11T01:16:21.931Z,8.40
2018-01-11T01:17:21.892Z,8.41
2018-01-11T01:18:21.909Z,8.41
2018-01-11T01:19:21.896Z,8.40
2018-01-11T01:20:21.896Z,8.37
2018-01-11T01:21:21.895Z,8.44
2018-01-11T01:22:21.897Z,8.45
2018-01-11T01:23:21.923Z,8.38
2018-01-11T01:24:21.905Z,8.38
2018-01-11T01:25:21.925Z,8.40
2018-01-11T01:26:21.929Z,8.44
2018-01-11T01:27:21.952Z,8.41
2018-01-11T01:28:21.927Z,8.36
2018-01-11T01:29:21.930Z,8.30
2018-01-11T01:30:21.944Z,8.33
2018-01-11T01:31:21.905Z,8.28
2018-01-11T01:32:21.921Z,8.23
2018-01-11T01:33:21.914Z,8.22
2018-01-11T01:34:21.989Z,8.19
2018-01-11T01:35:21.932Z,8.22
2018-01-11T01:36:21.943Z,8.18
2018-01-11T01:37:21.933Z,8.22
2018-01-11T01:38:21.971Z,8.25
2018-01-11T01:39:21.917Z,8.26
2018-01-11T01:40:21.967Z,8.36
2018-01-11T01:41:21.917Z,8.23
2018-01-11T01:42:21.953Z,8.28
2018-01-11T01:43:21.953Z,8.23
2018-01-11T01:44:21.981Z,8.22
2018-01-11T01:45:21.935Z,8.25
2018-01-11T01:46:21.931Z,8.18
2018-01-11T01:47:21.949Z,8.15
2018-01-11T01:48:21.917Z,8.26
2018-01-11T01:49:21.927Z,8.29
2018-01-11T01:50:21.940Z,8.30
2018-01-11T01:51:21.942Z,8.26
2018-01-11T01:52:21.934Z,8.26
2018-01-11T01:53:21.945Z,8.29
2018-01-11T01:54:21.928Z,8.33
2018-01-11T01:55:21.982Z,8.28
2018-01-11T01:56:21.963Z,8.29
2018-01-11T01:57:21.960Z,8.36
2018-01-11T01:58:21.975Z,8.33
2018-01-11T01:59:21.972Z,8.29
2018-01-11T02:00:21.945Z,8.33
2018-01-11T02:01:21.970Z,8.30
2018-01-11T02:02:21.973Z,8.33
2018-01-11T02:03:21.948Z,8.30
2018-01-11T02:04:21.957Z,8.29
2018-01-11T02:05:21.941Z,8.29
2018-01-11T02:06:21.950Z,8.25
2018-01-11T02:07:21.994Z,8.18
2018-01-11T02:08:21.998Z,8.23
2018-01-11T02:09:22.013Z,8.22
2018-01-11T02:10:21.954Z,8.23
2018-01-11T02:11:22.040Z,8.23
2018-01-11T02:12:21.968Z,8.18
2018-01-11T02:13:21.997Z,8.18
2018-01-11T02:14:21.999Z,8.10
2018-01-11T02:15:21.964Z,8.07
2018-01-11T02:16:21.975Z,8.07
2018-01-11T02:17:21.974Z,8.11
2018-01-11T02:18:21.952Z,8.05
2018-01-11T02:19:21.989Z,8.02
2018-01-11T02:20:21.970Z,8.08
2018-01-11T02:21:22.002Z,8.08
2018-01-11T02:22:21.992Z,8.10
2018-01-11T02:23:21.980Z,8.07
2018-01-11T02:24:21.965Z,8.18
2018-01-11T02:25:21.960Z,8.18
2018-01-11T02:26:21.964Z,8.15
2018-01-11T02:27:21.989Z,8.04
2018-01-11T02:28:22.000Z,8.19
2018-01-11T02:29:21.979Z,8.16
2018-01-11T02:30:22.006Z,8.18
2018-01-11T02:31:21.982Z,8.23
2018-01-11T02:32:21.989Z,8.19
2018-01-11T02:33:22.004Z,8.25
2018-01-11T02:34:21.973Z,8.25
2018-01-11T02:35:22.005Z,8.29
2018-01-11T02:36:22.008Z,8.30
2018-01-11T02:37:21.975Z,8.29
2018-01-11T02:38:21.990Z,8.28
2018-01-11T02:39:22.001Z,8.33
2018-01-11T02:40:21.997Z,8.34
2018-01-11T02:41:21.979Z,8.30
2018-01-11T02:42:22.022Z,8.26
2018-01-11T02:43:22.016Z,8.25
2018-01-11T02:44:22.521Z,8.15
2018-01-11T02:45:22.030Z,8.25
2018-01-11T02:46:22.025Z,8.18
2018-01-11T02:47:22.038Z,8.20
2018-01-11T02:48:22.006Z,8.20
2018-01-11T02:49:22.005Z,8.16
2018-01-11T02:50:22.012Z,8.16
2018-01-11T02:51:22.027Z,8.04
2018-01-11T02:52:22.060Z,8.18
2018-01-11T02:53:22.024Z,8.10
2018-01-11T02:54:22.008Z,8.11
2018-01-11T02:55:22.024Z,8.10
2018-01-11T02:56:22.031Z,8.19
2018-01-11T02:57:22.008Z,8.29
2018-01-11T02:58:22.036Z,8.16
2018-01-11T02:59:22.008Z,8.18
2018-01-11T03:00:22.074Z,8.18
2018-01-11T03:01:22.092Z,8.20
2018-01-11T03:02:22.017Z,8.18
2018-01-11T03:03:22.028Z,8.23
2018-01-11T03:04:22.008Z,8.37
2018-01-11T03:05:22.036Z,8.34
2018-01-11T03:06:22.044Z,8.30
2018-01-11T03:07:22.036Z,8.25
2018-01-11T03:08:22.028Z,8.33
2018-01-11T03:09:22.043Z,8.23
2018-01-11T03:10:22.066Z,8.30
2018-01-11T03:11:22.060Z,8.18
2018-01-11T03:12:22.050Z,8.16
2018-01-11T03:13:22.024Z,8.23
2018-01-11T03:14:22.084Z,8.18
2018-01-11T03:15:22.024Z,8.18
2018-01-11T03:16:22.033Z,8.19
2018-01-11T03:17:22.083Z,8.26
2018-01-11T03:18:22.037Z,8.20
2018-01-11T03:19:22.022Z,8.22
2018-01-11T03:20:22.055Z,8.25
2018-01-11T03:21:22.530Z,8.28
2018-01-11T03:22:22.064Z,8.33
2018-01-11T03:23:22.142Z,8.26
2018-01-11T03:24:22.075Z,8.36
2018-01-11T03:25:22.186Z,8.30
2018-01-11T03:26:22.077Z,8.43
2018-01-11T03:27:22.089Z,8.30
2018-01-11T03:28:22.103Z,8.34
2018-01-11T03:29:22.059Z,8.37
2018-01-11T03:30:22.111Z,8.30
2018-01-11T03:31:22.105Z,8.33
2018-01-11T03:32:22.052Z,8.33
2018-01-11T03:33:22.039Z,8.29
2018-01-11T03:34:22.089Z,8.36
2018-01-11T03:35:22.055Z,8.44
2018-01-11T03:36:22.050Z,8.29
2018-01-11T03:37:22.068Z,8.40
2018-01-11T03:38:22.095Z,8.40
2018-01-11T03:39:22.138Z,8.36
2018-01-11T03:40:22.081Z,8.40
2018-01-11T03:41:22.064Z,8.30
2018-01-11T03:42:22.115Z,8.34
2018-01-11T03:43:22.072Z,8.36
2018-01-11T03:44:22.110Z,8.25
2018-01-11T03:45:22.108Z,8.33
2018-01-11T03:46:22.079Z,8.26
2018-01-11T03:47:22.099Z,8.29
2018-01-11T03:48:22.083Z,8.28
2018-01-11T03:49:22.075Z,8.28
2018-01-11T03:50:22.072Z,8.26
2018-01-11T03:51:22.084Z,8.26
2018-01-11T03:52:22.112Z,8.33
2018-01-11T03:53:22.078Z,8.36
2018-01-11T03:54:22.104Z,8.29
2018-01-11T03:55:22.103Z,8.29
2018-01-11T03:56:23.052Z,8.28
2018-01-11T03:57:22.086Z,8.36
2018-01-11T03:58:22.146Z,8.34
2018-01-11T03:59:22.084Z,8.33
2018-01-11T04:00:22.110Z,8.29
2018-01-11T04:01:22.097Z,8.28
2018-01-11T04:02:22.105Z,8.33
2018-01-11T04:03:22.120Z,8.36
2018-01-11T04:04:22.116Z,8.29
2018-01-11T04:05:22.087Z,8.30
2018-01-11T04:06:22.132Z,8.37
2018-01-11T04:07:22.090Z,8.36
2018-01-11T04:08:22.101Z,8.40
2018-01-11T04:09:22.099Z,8.37
2018-01-11T04:10:22.097Z,8.45
2018-01-11T04:11:22.116Z,8.41
2018-01-11T04:12:22.098Z,8.43
2018-01-11T04:13:22.103Z,8.38
2018-01-11T04:14:22.103Z,8.40
2018-01-11T04:15:22.101Z,8.47
2018-01-11T04:16:22.099Z,8.41
2018-01-11T04:17:22.106Z,8.36
2018-01-11T04:18:22.142Z,8.37
2018-01-11T04:19:22.120Z,8.36
2018-01-11T04:20:22.121Z,8.33
2018-01-11T04:21:22.160Z,8.38
2018-01-11T04:22:22.146Z,8.37
2018-01-11T04:23:22.167Z,8.29
2018-01-11T04:24:22.162Z,8.34
2018-01-11T04:25:22.119Z,8.30
2018-01-11T04:26:22.138Z,8.30
2018-01-11T04:27:22.125Z,8.28
2018-01-11T04:28:22.130Z,8.30
2018-01-11T04:29:22.125Z,8.34
2018-01-11T04:30:22.166Z,8.22
2018-01-11T04:31:22.185Z,8.26
2018-01-11T04:32:22.150Z,8.28
2018-01-11T04:33:22.135Z,8.23
2018-01-11T04:34:22.154Z,8.15
2018-01-11T04:35:22.162Z,8.16
2018-01-11T04:36:22.139Z,8.15
2018-01-11T04:37:22.161Z,8.23
2018-01-11T04:38:22.165Z,8.20
2018-01-11T04:39:22.145Z,8.15
2018-01-11T04:40:22.171Z,8.20
2018-01-11T04:41:22.195Z,8.22
2018-01-11T04:42:22.138Z,8.30
2018-01-11T04:43:22.168Z,8.22
2018-01-11T04:44:22.142Z,8.26
2018-01-11T04:45:22.163Z,8.28
2018-01-11T04:46:22.223Z,8.29
2018-01-11T04:47:22.149Z,8.22
2018-01-11T04:48:22.174Z,8.26
2018-01-11T04:49:22.165Z,8.28
2018-01-11T04:50:22.159Z,8.19
2018-01-11T04:51:22.179Z,8.25
2018-01-11T04:52:22.184Z,8.26
2018-01-11T04:53:22.183Z,8.30
2018-01-11T04:54:22.149Z,8.30
2018-01-11T04:55:22.181Z,8.22
2018-01-11T04:56:22.175Z,8.28
2018-01-11T04:57:22.153Z,8.26
2018-01-11T04:58:22.180Z,8.26
2018-01-11T04:59:22.171Z,8.33
2018-01-11T05:00:22.206Z,8.30
2018-01-11T05:01:22.201Z,8.25
2018-01-11T05:02:22.178Z,8.33
2018-01-11T05:03:22.183Z,8.29
2018-01-11T05:04:22.177Z,8.34
2018-01-11T05:05:22.210Z,8.25
2018-01-11T05:06:22.164Z,8.30
2018-01-11T05:07:22.180Z,8.19
2018-01-11T05:08:22.178Z,8.25
2018-01-11T05:09:22.180Z,8.22
2018-01-11T05:10:22.334Z,8.19
2018-01-11T05:11:22.197Z,8.12
2018-01-11T05:12:22.206Z,8.18
2018-01-11T05:13:22.188Z,8.15
2018-01-11T05:14:22.202Z,8.19
2018-01-11T05:15:22.182Z,8.23
2018-01-11T05:16:22.258Z,8.22
2018-01-11T05:17:22.187Z,8.25
2018-01-11T05:18:22.223Z,8.23
2018-01-11T05:19:22.191Z,8.26
2018-01-11T05:20:22.194Z,8.23
2018-01-11T05:21:22.197Z,8.16
2018-01-11T05:22:22.214Z,8.20
2018-01-11T05:23:22.220Z,8.22
2018-01-11T05:24:22.194Z,8.28
2018-01-11T05:25:22.217Z,8.23
2018-01-11T05:26:22.220Z,8.33
2018-01-11T05:27:22.235Z,8.34
2018-01-11T05:28:22.212Z,8.30
2018-01-11T05:29:22.217Z,8.30
2018-01-11T05:30:22.240Z,8.33
2018-01-11T05:31:22.218Z,8.37
2018-01-11T05:32:22.239Z,8.34
2018-01-11T05:33:22.210Z,8.40
2018-01-11T05:34:22.209Z,8.41
2018-01-11T05:35:22.244Z,8.40
2018-01-11T05:36:22.213Z,8.41
2018-01-11T05:37:22.220Z,8.36
2018-01-11T05:38:22.216Z,8.36
2018-01-11T05:39:22.293Z,8.37
2018-01-11T05:40:22.277Z,8.33
2018-01-11T05:41:22.239Z,8.30
2018-01-11T05:42:22.217Z,8.25
2018-01-11T05:43:22.261Z,8.26
2018-01-11T05:44:22.252Z,8.25
2018-01-11T05:45:22.225Z,8.29
2018-01-11T05:46:22.260Z,8.34
2018-01-11T05:47:22.248Z,8.28
2018-01-11T05:48:22.258Z,8.23
2018-01-11T05:49:22.224Z,8.29
2018-01-11T05:50:22.292Z,8.26
2018-01-11T05:51:22.231Z,8.33
2018-01-11T05:52:22.240Z,8.37
2018-01-11T05:53:22.232Z,8.36
2018-01-11T05:54:22.229Z,8.33
2018-01-11T05:55:22.251Z,8.44
2018-01-11T05:56:22.237Z,8.43
2018-01-11T05:57:23.067Z,8.29
2018-01-11T05:58:22.240Z,8.36
2018-01-11T05:59:22.264Z,8.33
2018-01-11T06:00:22.240Z,8.34
2018-01-11T06:01:22.262Z,8.37
2018-01-11T06:02:22.291Z,8.44
2018-01-11T06:03:22.273Z,8.33
2018-01-11T06:04:22.259Z,8.38
2018-01-11T06:05:22.251Z,8.44
2018-01-11T06:06:22.248Z,8.40
2018-01-11T06:07:22.255Z,8.40
2018-01-11T06:08:22.305Z,8.41
2018-01-11T06:09:22.266Z,8.43
2018-01-11T06:10:22.296Z,8.44
2018-01-11T06:11:22.280Z,8.40
2018-01-11T06:12:22.262Z,8.40
2018-01-11T06:13:22.264Z,8.45
2018-01-11T06:14:22.273Z,8.44
2018-01-11T06:15:22.317Z,8.44
2018-01-11T06:16:22.284Z,8.43
2018-01-11T06:17:22.306Z,8.41
2018-01-11T06:18:22.302Z,8.44
2018-01-11T06:19:22.269Z,8.44
2018-01-11T06:20:22.311Z,8.41
2018-01-11T06:21:22.277Z,8.44
2018-01-11T06:22:22.286Z,8.44
2018-01-11T06:23:22.279Z,8.50
2018-01-11T06:24:22.322Z,8.37
2018-01-11T06:25:22.285Z,8.43
2018-01-11T06:26:22.328Z,8.44
2018-01-11T06:27:22.298Z,8.40
2018-01-11T06:28:23.088Z,8.43
2018-01-11T06:29:22.280Z,8.30
2018-01-11T06:30:22.453Z,8.29
2018-01-11T06:31:22.312Z,8.33
2018-01-11T06:32:22.283Z,8.34
2018-01-11T06:33:22.337Z,8.40
2018-01-11T06:34:23.086Z,8.40
2018-01-11T06:35:22.397Z,8.40
2018-01-11T06:36:22.351Z,8.45
2018-01-11T06:37:22.306Z,8.38
2018-01-11T06:38:22.324Z,8.45
2018-01-11T06:39:22.293Z,8.44
2018-01-11T06:40:22.335Z,8.38
2018-01-11T06:41:22.306Z,8.40
2018-01-11T06:42:22.337Z,8.41
2018-01-11T06:43:22.335Z,8.40
2018-01-11T06:44:22.303Z,8.33
2018-01-11T06:45:22.313Z,8.38
2018-01-11T06:46:22.362Z,8.45
2018-01-11T06:47:22.308Z,8.40
2018-01-11T06:48:22.326Z,8.40
2018-01-11T06:49:22.317Z,8.44
2018-01-11T06:50:22.359Z,8.45
2018-01-11T06:51:22.328Z,8.43
2018-01-11T06:52:22.394Z,8.43
2018-01-11T06:53:22.358Z,8.44
2018-01-11T06:54:22.356Z,8.43
2018-01-11T06:55:22.367Z,8.43
2018-01-11T06:56:22.311Z,8.47
2018-01-11T06:57:22.468Z,8.47
2018-01-11T06:58:22.419Z,8.48
2018-01-11T06:59:22.320Z,8.43
2018-01-11T07:00:22.332Z,8.48
2018-01-11T07:01:22.454Z,8.37
2018-01-11T07:02:22.387Z,8.44
2018-01-11T07:03:22.344Z,8.45
2018-01-11T07:04:22.335Z,8.44
2018-01-11T07:05:22.421Z,8.50
2018-01-11T07:06:22.349Z,8.44
2018-01-11T07:07:22.371Z,8.40
2018-01-11T07:08:22.340Z,8.45
2018-01-11T07:09:22.368Z,8.50
2018-01-11T07:10:22.452Z,8.53
2018-01-11T07:11:22.362Z,8.55
2018-01-11T07:12:22.372Z,8.48
2018-01-11T07:13:22.390Z,8.55
2018-01-11T07:14:22.399Z,8.62
2018-01-11T07:15:22.341Z,8.50
2018-01-11T07:16:22.478Z,8.47
2018-01-11T07:17:22.345Z,8.45
2018-01-11T07:18:22.405Z,8.36
2018-01-11T07:19:22.397Z,8.41
2018-01-11T07:20:22.393Z,8.44
2018-01-11T07:21:22.373Z,8.44
2018-01-11T07:22:22.349Z,8.45
2018-01-11T07:23:22.391Z,8.47
2018-01-11T07:24:22.361Z,8.48
2018-01-11T07:25:22.371Z,8.53
2018-01-11T07:26:22.403Z,8.52
2018-01-11T07:27:22.387Z,8.43
2018-01-11T07:28:22.409Z,8.48
2018-01-11T07:29:22.395Z,8.55
2018-01-11T07:30:22.429Z,8.47
2018-01-11T07:31:22.430Z,8.58
2018-01-11T07:32:22.413Z,8.58
2018-01-11T07:33:22.398Z,8.55
2018-01-11T07:34:22.498Z,8.50
2018-01-11T07:35:22.420Z,8.50
2018-01-11T07:36:22.532Z,8.50
2018-01-11T07:37:22.386Z,8.43
2018-01-11T07:38:22.395Z,8.52
2018-01-11T07:39:22.437Z,8.52
2018-01-11T07:40:22.396Z,8.48
2018-01-11T07:41:22.424Z,8.55
2018-01-11T07:42:22.475Z,8.63
2018-01-11T07:43:22.400Z,8.48
2018-01-11T07:44:23.105Z,8.61
2018-01-11T07:45:22.447Z,8.58
2018-01-11T07:46:22.397Z,8.62
2018-01-11T07:47:22.452Z,8.62
2018-01-11T07:48:22.461Z,8.61
2018-01-11T07:49:29.583Z,8.65
2018-01-11T07:50:22.490Z,8.61
2018-01-11T07:51:22.453Z,8.66
2018-01-11T07:52:22.461Z,8.56
2018-01-11T07:53:22.495Z,8.66
2018-01-11T07:54:23.101Z,8.79
2018-01-11T07:55:22.465Z,8.71
2018-01-11T07:56:22.434Z,8.74
2018-01-11T07:57:22.432Z,8.59
2018-01-11T07:58:22.420Z,8.66
2018-01-11T07:59:22.448Z,8.59
2018-01-11T08:00:22.889Z,8.61
2018-01-11T08:01:22.457Z,8.53
2018-01-11T08:02:22.430Z,8.48
2018-01-11T08:03:22.467Z,8.43
2018-01-11T08:04:22.520Z,8.47
2018-01-11T08:05:22.526Z,8.52
2018-01-11T08:06:22.437Z,8.41
2018-01-11T08:07:22.451Z,8.50
2018-01-11T08:08:22.429Z,8.58
2018-01-11T08:09:23.104Z,8.56
2018-01-11T08:10:22.482Z,8.62
2018-01-11T08:11:22.490Z,8.58
2018-01-11T08:12:22.474Z,8.59
2018-01-11T08:13:22.450Z,8.71
2018-01-11T08:14:22.489Z,8.73
2018-01-11T08:15:23.109Z,8.80
2018-01-11T08:16:22.449Z,8.68
2018-01-11T08:17:22.555Z,8.77
2018-01-11T08:18:23.106Z,8.74
2018-01-11T08:19:22.462Z,8.77
2018-01-11T08:20:23.140Z,8.81
2018-01-11T08:21:22.547Z,8.81
2018-01-11T08:22:22.514Z,8.96
2018-01-11T08:23:22.479Z,9.02
2018-01-11T08:24:22.574Z,8.95
2018-01-11T08:25:22.560Z,9.02
2018-01-11T08:26:23.190Z,8.99
2018-01-11T08:27:22.524Z,8.99
2018-01-11T08:28:22.534Z,9.08
2018-01-11T08:29:22.508Z,9.02
2018-01-11T08:30:23.297Z,9.08
2018-01-11T08:31:24.113Z,9.15
2018-01-11T08:32:22.520Z,9.18
2018-01-11T08:33:22.800Z,9.20
2018-01-11T08:34:23.374Z,9.18
2018-01-11T08:35:22.513Z,9.29
2018-01-11T08:36:45.088Z,9.31
2018-01-11T08:37:22.499Z,9.36
2018-01-11T08:38:37.294Z,9.33
2018-01-11T08:39:28.779Z,9.32
2018-01-11T08:40:22.631Z,9.28
2018-01-11T08:43:08.959Z,9.36
2018-01-11T08:44:06.996Z,9.28
2018-01-11T08:45:06.868Z,9.36
2018-01-11T08:46:07.047Z,9.38
2018-01-11T08:47:08.050Z,9.36
2018-01-11T08:48:09.161Z,9.28
2018-01-11T08:49:06.975Z,9.26
2018-01-11T08:50:06.974Z,9.39
2018-01-11T08:51:06.858Z,9.53
2018-01-11T08:52:06.886Z,9.58
2018-01-11T08:53:06.935Z,9.75
2018-01-11T08:54:07.055Z,9.76
2018-01-11T08:55:06.869Z,9.78
2018-01-11T08:56:06.959Z,9.84
2018-01-11T08:57:06.899Z,9.91
2018-01-11T08:58:07.226Z,9.99
2018-01-11T08:59:07.354Z,9.89
2018-01-11T09:00:06.908Z,10.02
2018-01-11T09:01:06.912Z,10.08
2018-01-11T09:02:06.944Z,10.14
2018-01-11T09:03:06.913Z,10.12
2018-01-11T09:04:07.014Z,10.01
2018-01-11T09:05:06.908Z,10.14
2018-01-11T09:06:06.991Z,10.20
2018-01-11T09:07:06.883Z,10.48
2018-01-11T09:08:06.888Z,10.64
2018-01-11T09:09:06.914Z,10.79
2018-01-11T09:10:06.901Z,10.88
2018-01-11T09:11:06.926Z,10.86
2018-01-11T09:12:06.898Z,10.79
2018-01-11T09:13:06.901Z,10.91
2018-01-11T09:14:06.954Z,11.00
2018-01-11T09:15:06.921Z,11.14
2018-01-11T09:16:06.986Z,11.19
2018-01-11T09:17:06.935Z,11.32
2018-01-11T09:18:06.923Z,11.33
2018-01-11T09:19:06.928Z,11.40
2018-01-11T09:20:06.928Z,11.28
2018-01-11T09:21:07.091Z,11.21
2018-01-11T09:22:06.953Z,11.15
2018-01-11T09:23:06.945Z,11.58
2018-01-11T09:24:06.943Z,12.01
2018-01-11T09:25:06.964Z,12.02
2018-01-11T09:26:06.971Z,12.09
2018-01-11T09:27:06.961Z,12.21
2018-01-11T09:28:07.016Z,12.50
2018-01-11T09:29:06.955Z,12.77
2018-01-11T09:30:06.980Z,13.05
2018-01-11T09:31:07.005Z,13.38
2018-01-11T09:32:06.956Z,13.59
2018-01-11T09:33:06.991Z,13.79
2018-01-11T09:34:06.968Z,14.03
2018-01-11T09:35:07.018Z,14.09
2018-01-11T09:36:07.014Z,14.29
2018-01-11T09:37:07.045Z,14.40
2018-01-11T09:38:07.124Z,14.32
2018-01-11T09:39:07.016Z,14.37
2018-01-11T09:40:07.007Z,14.20
2018-01-11T09:41:07.015Z,14.12
2018-01-11T09:42:07.118Z,13.67
2018-01-11T09:43:07.575Z,13.63
2018-01-11T09:44:07.135Z,13.66
2018-01-11T09:45:07.174Z,13.54
2018-01-11T09:46:07.037Z,13.75
2018-01-11T09:47:07.123Z,13.81
2018-01-11T09:48:07.320Z,13.71
2018-01-11T09:49:07.157Z,13.59
2018-01-11T09:50:07.134Z,13.49
2018-01-11T09:51:07.145Z,13.69
2018-01-11T09:52:07.067Z,14.07
2018-01-11T09:53:07.136Z,14.15
2018-01-11T09:54:07.176Z,14.32
2018-01-11T09:55:07.081Z,14.43
2018-01-11T09:56:07.094Z,14.62
2018-01-11T09:57:07.152Z,14.62
2018-01-11T09:58:07.174Z,14.75
2018-01-11T09:59:07.497Z,14.81
2018-01-11T10:00:07.129Z,14.64
2018-01-11T10:01:07.116Z,14.42
2018-01-11T10:02:07.207Z,14.21
2018-01-11T10:03:07.999Z,14.03
2018-01-11T10:04:07.468Z,14.00
2018-01-11T10:05:07.516Z,13.97
2018-01-11T10:06:07.160Z,13.88
2018-01-11T10:07:07.237Z,13.87
2018-01-11T10:08:07.145Z,13.87
2018-01-11T10:09:07.225Z,13.79
2018-01-11T10:10:07.164Z,13.79
2018-01-11T10:11:07.225Z,13.57
2018-01-11T10:12:07.203Z,13.54
2018-01-11T10:13:07.144Z,13.44
2018-01-11T10:14:07.146Z,13.52
2018-01-11T10:15:07.148Z,13.48
2018-01-11T10:16:07.198Z,13.38
2018-01-11T10:17:07.198Z,13.20
2018-01-11T10:18:07.243Z,13.19
2018-01-11T10:19:07.209Z,13.03
2018-01-11T10:20:07.170Z,12.85
2018-01-11T10:21:08.116Z,12.75
2018-01-11T10:22:07.187Z,12.74
2018-01-11T10:23:07.211Z,12.68
2018-01-11T10:24:07.257Z,12.64
2018-01-11T10:25:07.281Z,12.57
2018-01-11T10:26:07.222Z,12.53
2018-01-11T10:27:07.194Z,12.56
2018-01-11T10:28:07.318Z,12.50
2018-01-11T10:29:07.198Z,12.37
2018-01-11T10:30:07.211Z,12.41
2018-01-11T10:31:07.222Z,12.31
2018-01-11T10:32:07.270Z,12.35
2018-01-11T10:33:07.302Z,12.38
2018-01-11T10:34:07.237Z,12.35
2018-01-11T10:35:07.251Z,12.37
2018-01-11T10:36:07.246Z,12.29
2018-01-11T10:37:07.267Z,12.35
2018-01-11T10:38:07.240Z,12.32
2018-01-11T10:39:07.251Z,12.34
2018-01-11T10:40:08.127Z,12.32
2018-01-11T10:41:07.249Z,12.38
2018-01-11T10:42:07.328Z,12.35
2018-01-11T10:43:07.251Z,12.28
2018-01-11T10:44:07.311Z,12.27
2018-01-11T10:45:07.324Z,12.27
2018-01-11T10:46:07.337Z,12.16
2018-01-11T10:47:07.302Z,12.10
2018-01-11T10:48:08.127Z,12.13
2018-01-11T10:49:07.305Z,12.01
2018-01-11T10:50:07.350Z,12.07
2018-01-11T10:51:07.307Z,12.09
2018-01-11T10:52:08.135Z,12.07
2018-01-11T10:53:07.320Z,12.07
2018-01-11T10:54:07.294Z,12.02
2018-01-11T10:55:07.294Z,12.01
2018-01-11T10:56:07.342Z,12.04
2018-01-11T10:57:07.364Z,12.12
2018-01-11T10:58:08.230Z,12.02
2018-01-11T10:59:07.372Z,12.05
2018-01-11T11:00:07.304Z,12.07
2018-01-11T11:01:07.314Z,12.04
2018-01-11T11:02:07.359Z,12.09
2018-01-11T11:03:07.336Z,12.05
2018-01-11T11:04:07.380Z,12.02
2018-01-11T11:05:07.358Z,12.13
2018-01-11T11:06:07.357Z,12.02
2018-01-11T11:07:07.387Z,11.98
2018-01-11T11:08:07.346Z,12.01
2018-01-11T11:09:07.341Z,12.13
2018-01-11T11:10:07.344Z,12.07
2018-01-11T11:11:07.363Z,12.01
2018-01-11T11:12:07.392Z,11.91
2018-01-11T11:13:07.352Z,12.04
2018-01-11T11:14:07.357Z,12.07
2018-01-11T11:15:07.363Z,12.04
2018-01-11T11:16:07.797Z,12.10
2018-01-11T11:17:07.396Z,12.07
2018-01-11T11:18:07.391Z,12.14
2018-01-11T11:19:08.153Z,12.10
2018-01-11T11:20:07.381Z,12.12
2018-01-11T11:21:07.393Z,12.12
2018-01-11T11:22:07.386Z,12.14
2018-01-11T11:23:07.401Z,12.16
2018-01-11T11:24:07.400Z,12.24
2018-01-11T11:25:07.430Z,12.14
2018-01-11T11:26:07.424Z,12.14
2018-01-11T11:27:07.432Z,12.20
2018-01-11T11:28:07.460Z,12.20
2018-01-11T11:29:07.466Z,12.17
2018-01-11T11:30:07.480Z,12.20
2018-01-11T11:31:07.634Z,12.19
2018-01-11T11:32:07.521Z,12.14
2018-01-11T11:33:07.510Z,12.21
2018-01-11T11:34:07.742Z,12.20
2018-01-11T11:35:07.499Z,12.13
2018-01-11T11:36:07.536Z,12.01
2018-01-11T11:37:07.432Z,11.98
2018-01-11T11:38:07.506Z,12.02
2018-01-11T11:39:07.506Z,12.02
2018-01-11T11:40:07.451Z,12.12
2018-01-11T11:41:07.638Z,12.02
2018-01-11T11:42:07.468Z,12.01
2018-01-11T11:43:07.551Z,12.09
2018-01-11T11:44:07.550Z,11.94
2018-01-11T11:45:07.562Z,11.94
2018-01-11T11:46:07.542Z,11.86
2018-01-11T11:47:08.412Z,11.80
2018-01-11T11:48:07.636Z,11.85
2018-01-11T11:49:07.483Z,11.85
2018-01-11T11:50:07.502Z,11.94
2018-01-11T11:51:07.557Z,11.99
2018-01-11T11:52:07.615Z,11.88
2018-01-11T11:53:07.543Z,11.85
2018-01-11T11:54:07.519Z,11.79
2018-01-11T11:55:07.501Z,11.86
2018-01-11T11:56:07.646Z,11.78
2018-01-11T11:57:07.510Z,11.78
2018-01-11T11:58:07.539Z,11.79
2018-01-11T11:59:07.588Z,11.75
2018-01-11T12:00:07.502Z,11.86
2018-01-11T12:01:07.506Z,11.75
2018-01-11T12:02:07.570Z,11.75
2018-01-11T12:03:07.526Z,11.79
2018-01-11T12:04:07.594Z,11.76
2018-01-11T12:05:07.612Z,11.73
2018-01-11T12:06:07.518Z,11.72
2018-01-11T12:07:07.554Z,11.69
2018-01-11T12:08:07.525Z,11.67
2018-01-11T12:09:07.548Z,11.69
2018-01-11T12:10:07.539Z,11.73
2018-01-11T12:11:07.547Z,11.70
2018-01-11T12:12:07.585Z,11.76
2018-01-11T12:13:07.605Z,11.78
2018-01-11T12:14:07.608Z,11.82
2018-01-11T12:15:07.605Z,11.70
2018-01-11T12:16:07.638Z,11.72
2018-01-11T12:17:07.666Z,11.65
2018-01-11T12:18:07.568Z,11.70
2018-01-11T12:19:15.946Z,11.64
2018-01-11T12:20:08.149Z,11.60
2018-01-11T12:21:10.899Z,11.57
2018-01-11T12:22:07.598Z,11.62
2018-01-11T12:23:07.638Z,11.64
2018-01-11T12:24:07.602Z,11.64
2018-01-11T12:25:07.584Z,11.60
2018-01-11T12:26:08.389Z,11.69
2018-01-11T12:27:08.187Z,11.64
2018-01-11T12:28:07.642Z,11.67
2018-01-11T12:29:07.665Z,11.62
2018-01-11T12:30:07.618Z,11.65
2018-01-11T12:31:08.195Z,11.79
2018-01-11T12:32:07.657Z,11.65
2018-01-11T12:33:07.712Z,11.69
2018-01-11T12:34:07.622Z,11.73
2018-01-11T12:35:07.636Z,11.75
2018-01-11T12:36:07.718Z,11.62
2018-01-11T12:37:07.666Z,11.64
2018-01-11T12:38:07.634Z,11.72
2018-01-11T12:39:07.736Z,11.64
2018-01-11T12:40:07.856Z,11.67
2018-01-11T12:41:07.667Z,11.72
2018-01-11T12:42:07.744Z,11.58
2018-01-11T12:43:07.861Z,11.57
2018-01-11T12:44:07.823Z,11.60
2018-01-11T12:45:07.703Z,11.58
2018-01-11T12:46:07.732Z,11.61
2018-01-11T12:47:07.703Z,11.60
2018-01-11T12:48:07.701Z,11.67
2018-01-11T12:49:07.746Z,11.60
2018-01-11T12:50:07.715Z,11.55
2018-01-11T12:52:07.751Z,11.51
2018-01-11T12:53:07.733Z,11.57
2018-01-11T12:54:08.260Z,11.51
2018-01-11T12:55:07.782Z,11.36
2018-01-11T12:56:07.789Z,11.32
2018-01-11T12:57:07.728Z,11.39
2018-01-11T12:58:07.750Z,11.43
2018-01-11T12:59:07.855Z,11.28
2018-01-11T13:00:08.894Z,11.32
2018-01-11T13:01:07.867Z,11.29
2018-01-11T13:02:08.351Z,11.27
2018-01-11T13:03:08.180Z,11.17
2018-01-11T13:04:07.805Z,11.15
2018-01-11T13:05:07.987Z,11.18
2018-01-11T13:06:07.739Z,11.11
2018-01-11T13:07:07.788Z,11.14
2018-01-11T13:08:07.759Z,11.10
2018-01-11T13:09:07.785Z,11.14
2018-01-11T13:10:07.784Z,11.06
2018-01-11T13:11:07.764Z,11.03
2018-01-11T13:12:07.748Z,11.03
2018-01-11T13:13:07.861Z,11.04